Bitte Uhrzeit beachten ob Daten aktuell sind!
Anzeige der letzten 100 Messwerte (~8 Stunden)| Datum | Zeit | Wind | Richtung | Richtung | Böen | Temperatur | Feuchte | Luftdruck |
|---|---|---|---|---|---|---|---|---|
| 04.09.2026 | 06:24:00 | 1.8 km/h | 105.5 ° | O-SO | 3.24 km/h | 19.3 °C | 53 % | 1018.22 hPa |
| 04.09.2026 | 06:19:16 | 3.14 km/h | 105.5 ° | O-SO | 6.84 km/h | 19.3 °C | 53.5 % | 1018.12 hPa |
| 04.09.2026 | 06:14:32 | 2.49 km/h | 105.5 ° | O-SO | 5.04 km/h | 19.3 °C | 53 % | 1018.22 hPa |
| 04.09.2026 | 06:09:48 | 2.66 km/h | 105.5 ° | O-SO | 7.56 km/h | 19.4 °C | 53.5 % | 1018.32 hPa |
| 04.09.2026 | 06:05:04 | 1.43 km/h | 105.5 ° | O-SO | 3.6 km/h | 19.4 °C | 53 % | 1018.32 hPa |
| 04.09.2026 | 06:00:20 | 4.26 km/h | 105.5 ° | O-SO | 5.04 km/h | 19.4 °C | 52.5 % | 1018.42 hPa |
| 04.09.2026 | 05:55:36 | 2.35 km/h | 105.5 ° | O-SO | 6.12 km/h | 19.4 °C | 53 % | 1018.52 hPa |
| 04.09.2026 | 05:50:52 | 3.9 km/h | 105.5 ° | O-SO | 7.56 km/h | 19.4 °C | 53 % | 1018.52 hPa |
| 04.09.2026 | 05:46:08 | 4.35 km/h | 105.5 ° | O-SO | 6.48 km/h | 19.4 °C | 53 % | 1018.52 hPa |
| 04.09.2026 | 05:41:24 | 3.1 km/h | 105.5 ° | O-SO | 5.4 km/h | 19.4 °C | 53 % | 1018.52 hPa |
| 04.09.2026 | 05:36:40 | 4.41 km/h | 105.5 ° | O-SO | 7.2 km/h | 19.4 °C | 53 % | 1018.52 hPa |
| 04.09.2026 | 05:31:55 | 2.99 km/h | 105.5 ° | O-SO | 4.32 km/h | 19.4 °C | 52.5 % | 1018.62 hPa |
| 04.09.2026 | 05:27:11 | 0.82 km/h | 105.5 ° | O-SO | 1.8 km/h | 19.4 °C | 52.5 % | 1018.52 hPa |
| 04.09.2026 | 05:22:27 | 1.68 km/h | 105.5 ° | O-SO | 3.6 km/h | 19.4 °C | 54 % | 1018.62 hPa |
| 04.09.2026 | 05:17:43 | 3.02 km/h | 105.5 ° | O-SO | 6.48 km/h | 19.4 °C | 53 % | 1018.62 hPa |
| 04.09.2026 | 05:12:59 | 4.32 km/h | 105.5 ° | O-SO | 9 km/h | 19.4 °C | 52.5 % | 1018.72 hPa |
| 04.09.2026 | 05:08:15 | 3.04 km/h | 105.5 ° | O-SO | 7.56 km/h | 19.3 °C | 53 % | 1018.62 hPa |
| 04.09.2026 | 05:03:31 | 0.03 km/h | 105.5 ° | O-SO | 0.36 km/h | 19.4 °C | 53 % | 1018.72 hPa |
| 04.09.2026 | 04:58:47 | 4.74 km/h | 105.5 ° | O-SO | 11.52 km/h | 19.5 °C | 53 % | 1018.62 hPa |
| 04.09.2026 | 04:54:03 | 3.6 km/h | 105.5 ° | O-SO | 5.76 km/h | 19.5 °C | 53 % | 1018.72 hPa |
| 04.09.2026 | 04:49:19 | 4.32 km/h | 105.5 ° | O-SO | 6.48 km/h | 19.6 °C | 53 % | 1018.62 hPa |
| 04.09.2026 | 04:38:30 | 7.36 km/h | 105.5 ° | O-SO | 12.24 km/h | 19.7 °C | 53 % | 1018.82 hPa |
| 04.09.2026 | 04:33:46 | 7.13 km/h | 105.5 ° | O-SO | 9.36 km/h | 19.7 °C | 53 % | 1018.62 hPa |
| 04.09.2026 | 04:29:01 | 9.64 km/h | 105.5 ° | O-SO | 18.36 km/h | 19.8 °C | 53 % | 1018.62 hPa |
| 04.09.2026 | 04:24:17 | 9.36 km/h | 105.5 ° | O-SO | 14.4 km/h | 19.8 °C | 52.5 % | 1018.52 hPa |
| 04.09.2026 | 04:19:33 | 9.21 km/h | 105.5 ° | O-SO | 13.32 km/h | 19.9 °C | 52.5 % | 1018.72 hPa |
| 04.09.2026 | 04:14:49 | 8.58 km/h | 105.5 ° | O-SO | 13.68 km/h | 19.9 °C | 52.5 % | 1018.82 hPa |
| 04.09.2026 | 04:10:05 | 8.88 km/h | 105.5 ° | O-SO | 11.88 km/h | 20 °C | 52.5 % | 1018.92 hPa |
| 04.09.2026 | 04:05:21 | 9.4 km/h | 105.5 ° | O-SO | 13.68 km/h | 20.1 °C | 52.5 % | 1018.92 hPa |
| 04.09.2026 | 04:00:37 | 10.38 km/h | 105.5 ° | O-SO | 14.76 km/h | 20.1 °C | 53 % | 1018.92 hPa |
| 04.09.2026 | 03:55:53 | 8.69 km/h | 105.5 ° | O-SO | 12.6 km/h | 20.1 °C | 52 % | 1019.02 hPa |
| 04.09.2026 | 03:51:09 | 8.43 km/h | 105.5 ° | O-SO | 14.04 km/h | 20.1 °C | 52.5 % | 1019.02 hPa |
| 04.09.2026 | 03:46:24 | 6.86 km/h | 105.5 ° | O-SO | 9.72 km/h | 20.1 °C | 52.5 % | 1019.02 hPa |
| 04.09.2026 | 03:41:40 | 6.4 km/h | 105.5 ° | O-SO | 9.36 km/h | 20.1 °C | 52.5 % | 1019.12 hPa |
| 04.09.2026 | 03:36:56 | 8.09 km/h | 105.5 ° | O-SO | 14.04 km/h | 20.2 °C | 52.5 % | 1019.02 hPa |
| 04.09.2026 | 03:32:12 | 8.14 km/h | 105.5 ° | O-SO | 12.24 km/h | 20.2 °C | 52.5 % | 1019.12 hPa |
| 04.09.2026 | 03:27:27 | 7.5 km/h | 105.5 ° | O-SO | 10.44 km/h | 20.3 °C | 51.5 % | 1019.22 hPa |
| 04.09.2026 | 03:22:43 | 10.44 km/h | 105.5 ° | O-SO | 12.6 km/h | 20.3 °C | 52.5 % | 1019.22 hPa |
| 04.09.2026 | 03:18:04 | 10.3 km/h | 105.5 ° | O-SO | 12.96 km/h | 20.3 °C | 52.5 % | 1019.22 hPa |
| 04.09.2026 | 03:13:15 | 9.81 km/h | 105.5 ° | O-SO | 13.68 km/h | 20.3 °C | 52.5 % | 1019.22 hPa |
| 04.09.2026 | 03:08:31 | 10.95 km/h | 105.5 ° | O-SO | 18 km/h | 20.3 °C | 53 % | 1019.22 hPa |
| 04.09.2026 | 03:03:47 | 10.06 km/h | 105.5 ° | O-SO | 15.12 km/h | 20.3 °C | 51.5 % | 1019.32 hPa |
| 04.09.2026 | 02:59:03 | 10.75 km/h | 105.5 ° | O-SO | 15.84 km/h | 20.3 °C | 52.5 % | 1019.22 hPa |
| 04.09.2026 | 02:54:18 | 12.61 km/h | 105.5 ° | O-SO | 16.56 km/h | 20.3 °C | 53 % | 1019.32 hPa |
| 04.09.2026 | 02:49:40 | 11.2 km/h | 105.5 ° | O-SO | 13.68 km/h | 20.3 °C | 52.5 % | 1019.32 hPa |
| 04.09.2026 | 02:44:50 | 10.99 km/h | 105.5 ° | O-SO | 13.32 km/h | 20.2 °C | 52.5 % | 1019.32 hPa |
| 04.09.2026 | 02:40:06 | 9.72 km/h | 105.5 ° | O-SO | 12.6 km/h | 20.2 °C | 52 % | 1019.32 hPa |
| 04.09.2026 | 02:35:22 | 9.26 km/h | 105.5 ° | O-SO | 11.52 km/h | 20.2 °C | 52.5 % | 1019.32 hPa |
| 04.09.2026 | 02:30:38 | 10.59 km/h | 105.5 ° | O-SO | 14.76 km/h | 20.3 °C | 52 % | 1019.22 hPa |
| 04.09.2026 | 02:25:54 | 9.64 km/h | 105.5 ° | O-SO | 15.12 km/h | 20.2 °C | 51.5 % | 1019.32 hPa |
| 04.09.2026 | 02:21:10 | 8.13 km/h | 105.5 ° | O-SO | 12.96 km/h | 20.2 °C | 52 % | 1019.32 hPa |
| 04.09.2026 | 02:16:26 | 8.71 km/h | 105.5 ° | O-SO | 10.8 km/h | 20.3 °C | 52 % | 1019.42 hPa |
| 04.09.2026 | 02:11:41 | 9.96 km/h | 105.5 ° | O-SO | 12.96 km/h | 20.3 °C | 52.5 % | 1019.52 hPa |
| 04.09.2026 | 02:06:57 | 7.05 km/h | 105.5 ° | O-SO | 10.44 km/h | 20.3 °C | 52 % | 1019.52 hPa |
| 04.09.2026 | 02:02:13 | 9.86 km/h | 105.5 ° | O-SO | 13.32 km/h | 20.3 °C | 52.5 % | 1019.52 hPa |
| 04.09.2026 | 01:57:29 | 8.08 km/h | 105.5 ° | O-SO | 10.08 km/h | 20.3 °C | 53 % | 1019.52 hPa |
| 04.09.2026 | 01:52:44 | 9.86 km/h | 105.5 ° | O-SO | 14.04 km/h | 20.3 °C | 52 % | 1019.52 hPa |
| 04.09.2026 | 01:48:00 | 11.89 km/h | 105.5 ° | O-SO | 16.2 km/h | 20.3 °C | 52 % | 1019.62 hPa |
| 04.09.2026 | 01:43:16 | 8.65 km/h | 105.5 ° | O-SO | 11.52 km/h | 20.3 °C | 52 % | 1019.72 hPa |
| 04.09.2026 | 01:38:32 | 9.28 km/h | 105.5 ° | O-SO | 10.8 km/h | 20.3 °C | 52 % | 1019.62 hPa |
| 04.09.2026 | 01:33:48 | 9.27 km/h | 105.5 ° | O-SO | 11.16 km/h | 20.3 °C | 52 % | 1019.82 hPa |
| 04.09.2026 | 01:29:04 | 7.82 km/h | 105.5 ° | O-SO | 11.88 km/h | 20.3 °C | 52 % | 1019.92 hPa |
| 04.09.2026 | 01:24:19 | 6.6 km/h | 105.5 ° | O-SO | 9.36 km/h | 20.3 °C | 52 % | 1019.92 hPa |
| 04.09.2026 | 01:19:35 | 7.15 km/h | 105.5 ° | O-SO | 10.44 km/h | 20.2 °C | 52.5 % | 1020.12 hPa |
| 04.09.2026 | 01:14:51 | 8.01 km/h | 105.5 ° | O-SO | 10.08 km/h | 20.3 °C | 52 % | 1020.02 hPa |
| 04.09.2026 | 01:05:05 | 8.45 km/h | 105.5 ° | O-SO | 10.8 km/h | 20.3 °C | 52 % | 1020.02 hPa |
| 04.09.2026 | 01:00:21 | 7.47 km/h | 105.5 ° | O-SO | 11.16 km/h | 20.4 °C | 52 % | 1020.02 hPa |
| 04.09.2026 | 00:55:41 | 7.58 km/h | 105.5 ° | O-SO | 12.24 km/h | 20.4 °C | 52 % | 1020.02 hPa |
| 04.09.2026 | 00:50:53 | 7.95 km/h | 105.5 ° | O-SO | 11.16 km/h | 20.4 °C | 52 % | 1020.22 hPa |
| 04.09.2026 | 00:46:08 | 8.22 km/h | 105.5 ° | O-SO | 10.08 km/h | 20.4 °C | 52 % | 1020.22 hPa |
| 04.09.2026 | 00:41:24 | 7.39 km/h | 105.5 ° | O-SO | 11.88 km/h | 20.4 °C | 52 % | 1020.22 hPa |
| 04.09.2026 | 00:36:40 | 5.62 km/h | 105.5 ° | O-SO | 7.92 km/h | 20.5 °C | 52 % | 1020.22 hPa |
| 04.09.2026 | 00:31:55 | 8.49 km/h | 105.5 ° | O-SO | 11.88 km/h | 20.5 °C | 52 % | 1020.22 hPa |
| 04.09.2026 | 00:27:11 | 10.97 km/h | 105.5 ° | O-SO | 15.84 km/h | 20.5 °C | 52 % | 1020.12 hPa |
| 04.09.2026 | 00:22:27 | 8.72 km/h | 105.5 ° | O-SO | 11.88 km/h | 20.5 °C | 52 % | 1020.22 hPa |
| 04.09.2026 | 00:17:48 | 7.5 km/h | 105.5 ° | O-SO | 10.44 km/h | 20.5 °C | 52 % | 1020.32 hPa |
| 04.09.2026 | 00:12:59 | 6.33 km/h | 105.5 ° | O-SO | 11.52 km/h | 20.5 °C | 51.5 % | 1020.32 hPa |
| 04.09.2026 | 00:08:15 | 5.37 km/h | 105.5 ° | O-SO | 10.08 km/h | 20.5 °C | 52 % | 1020.42 hPa |
| 04.09.2026 | 00:03:30 | 7.04 km/h | 105.5 ° | O-SO | 10.44 km/h | 20.5 °C | 52 % | 1020.12 hPa |
| 03.09.2026 | 23:58:46 | 7.34 km/h | 105.5 ° | O-SO | 9.72 km/h | 20.5 °C | 52 % | 1020.22 hPa |
| 03.09.2026 | 23:54:02 | 7.58 km/h | 105.5 ° | O-SO | 9 km/h | 20.4 °C | 52 % | 1020.12 hPa |
| 03.09.2026 | 23:49:17 | 7.09 km/h | 105.5 ° | O-SO | 8.64 km/h | 20.4 °C | 52 % | 1020.12 hPa |
| 03.09.2026 | 23:44:33 | 8.53 km/h | 105.5 ° | O-SO | 10.44 km/h | 20.4 °C | 52 % | 1020.12 hPa |
| 03.09.2026 | 23:39:49 | 7.05 km/h | 105.5 ° | O-SO | 10.08 km/h | 20.3 °C | 52 % | 1020.12 hPa |
| 03.09.2026 | 23:35:04 | 8.68 km/h | 105.5 ° | O-SO | 10.44 km/h | 20.3 °C | 52 % | 1020.12 hPa |
| 03.09.2026 | 23:30:20 | 8.59 km/h | 105.5 ° | O-SO | 14.04 km/h | 20.2 °C | 52 % | 1020.12 hPa |
| 03.09.2026 | 23:25:36 | 6.93 km/h | 105.5 ° | O-SO | 8.64 km/h | 20.1 °C | 52 % | 1020.02 hPa |
| 03.09.2026 | 23:20:52 | 7.15 km/h | 105.5 ° | O-SO | 9.36 km/h | 20.1 °C | 52 % | 1020.12 hPa |
| 03.09.2026 | 23:16:07 | 7.51 km/h | 105.5 ° | O-SO | 8.64 km/h | 20 °C | 52 % | 1020.02 hPa |
| 03.09.2026 | 23:11:24 | 6.75 km/h | 105.5 ° | O-SO | 9.72 km/h | 20 °C | 52 % | 1020.12 hPa |
| 03.09.2026 | 23:02:00 | 6.19 km/h | 105.5 ° | O-SO | 9 km/h | 19.9 °C | 52 % | 1020.12 hPa |
| 03.09.2026 | 22:57:11 | 6.24 km/h | 105.5 ° | O-SO | 9.72 km/h | 19.8 °C | 51.5 % | 1020.12 hPa |
| 03.09.2026 | 22:52:27 | 4.46 km/h | 105.5 ° | O-SO | 7.2 km/h | 19.8 °C | 52 % | 1020.22 hPa |
| 03.09.2026 | 22:47:43 | 4.68 km/h | 105.5 ° | O-SO | 5.76 km/h | 19.8 °C | 52 % | 1020.22 hPa |
| 03.09.2026 | 22:42:58 | 5.99 km/h | 105.5 ° | O-SO | 8.64 km/h | 19.8 °C | 52 % | 1020.22 hPa |
| 03.09.2026 | 22:38:14 | 4.92 km/h | 105.5 ° | O-SO | 7.56 km/h | 19.8 °C | 52 % | 1020.02 hPa |
| 03.09.2026 | 22:33:30 | 2.49 km/h | 105.5 ° | O-SO | 4.68 km/h | 19.7 °C | 52 % | 1020.22 hPa |
| 03.09.2026 | 22:28:46 | 1.23 km/h | 105.5 ° | O-SO | 2.52 km/h | 19.6 °C | 52 % | 1020.22 hPa |
| 03.09.2026 | 22:24:02 | 2.6 km/h | 105.5 ° | O-SO | 6.48 km/h | 19.6 °C | 52 % | 1020.42 hPa |
| 03.09.2026 | 22:19:18 | 2.91 km/h | 105.5 ° | O-SO | 5.04 km/h | 19.6 °C | 52 % | 1020.42 hPa |